Springfield, Michigan
Current Conditions -  °F | °C
As of 10:53 AM on Wednesday 26 Nov 2014 (Local Time) from KBTL Reporting Station
Overcast Overcast  
Wind Chill: 22°   Ceiling: 2100
Heat Index: 29°   Visibility: 10mi
Dew Point: 18°   Wind: 7mph
Humidity: 64%   Direction: 120°ESE
Pressure: 30.16"   Gusts: NA
Location:  42.2966°N, 85.2371°W
Report Text: KBTL 261553Z 12006KT 10SM OVC021 M02/M08 A3016 RMK AO2 SLP224 T10171078
Loading
Personal Weather Stations






























Interactive Weather Map New forecast layout! Learn more

10-Day Weather Forecast

Advertisements
Track Severe Weather on mobile